Time;durP1;ratioP1;P1;durP2;ratioP2;P2;SDS_P1;SDS_P2;PMS_P1;PMS_P2;Temp;Humidity;BMP_temperature;BMP_pressure;BME280_temperature;BME280_humidity;BME280_pressure;Samples;Min_cycle;Max_cycle;Signal;HPM_P1;HPM_P2
2021/06/08 00:01:20;;;;;;;6.28;5.68;;;17.20;77.90;;;;;;5020414;28;20033;-78
2021/06/08 00:03:46;;;;;;;8.60;7.68;;;17.20;77.70;;;;;;5040766;28;20130;-78
2021/06/08 00:06:11;;;;;;;4.85;4.35;;;17.10;77.90;;;;;;5038338;28;20032;-77
2021/06/08 00:08:37;;;;;;;6.68;5.70;;;17.00;78.00;;;;;;5012394;28;20041;-78
2021/06/08 00:11:02;;;;;;;10.40;8.52;;;16.90;78.50;;;;;;5025281;28;20021;-78
2021/06/08 00:13:28;;;;;;;10.43;8.88;;;16.90;78.30;;;;;;5034496;28;20477;-78
2021/06/08 00:15:54;;;;;;;9.93;9.02;;;16.90;78.60;;;;;;5038483;28;20079;-78
2021/06/08 00:18:19;;;;;;;9.30;8.05;;;16.80;78.80;;;;;;5040833;28;20029;-78
2021/06/08 00:20:45;;;;;;;13.48;8.75;;;16.60;78.60;;;;;;5037252;28;20036;-77
2021/06/08 00:23:10;;;;;;;11.15;9.35;;;16.50;78.70;;;;;;5039781;28;20036;-78
2021/06/08 00:25:36;;;;;;;10.40;9.25;;;16.30;79.30;;;;;;5023456;28;20247;-78
2021/06/08 00:28:04;;;;;;;10.73;9.57;;;16.20;78.20;;;;;;5038599;28;20432;-78
2021/06/08 00:30:29;;;;;;;9.50;7.68;;;16.10;79.70;;;;;;5013851;28;20033;-78
2021/06/08 00:32:55;;;;;;;9.52;8.60;;;16.10;81.90;;;;;;5021547;28;20529;-78
2021/06/08 00:35:20;;;;;;;11.88;8.90;;;16.10;81.60;;;;;;5032688;28;20043;-77
2021/06/08 00:37:46;;;;;;;11.32;10.18;;;16.10;80.70;;;;;;5017676;28;20674;-77
2021/06/08 00:40:12;;;;;;;7.75;6.50;;;16.10;80.40;;;;;;5021869;28;20032;-78
2021/06/08 00:42:38;;;;;;;13.25;8.65;;;16.10;80.50;;;;;;5041508;28;20410;-78
2021/06/08 00:45:04;;;;;;;9.38;7.15;;;16.10;80.50;;;;;;5029176;28;20025;-77
2021/06/08 00:47:30;;;;;;;10.52;7.05;;;16.00;80.60;;;;;;5034708;28;20509;-78
2021/06/08 00:49:56;;;;;;;8.77;7.32;;;16.10;80.90;;;;;;5017874;28;20048;-77
2021/06/08 00:52:22;;;;;;;9.45;8.15;;;16.00;80.50;;;;;;5039655;28;20490;-78
2021/06/08 00:54:47;;;;;;;13.98;8.90;;;16.00;80.60;;;;;;5034916;28;20053;-78
2021/06/08 00:57:13;;;;;;;9.32;8.43;;;15.90;81.10;;;;;;5026863;28;20104;-79
2021/06/08 00:59:38;;;;;;;11.32;9.85;;;15.90;80.90;;;;;;5019861;28;20485;-78
2021/06/08 01:02:04;;;;;;;12.98;10.77;;;15.80;80.80;;;;;;5028313;28;20026;-78
2021/06/08 01:04:29;;;;;;;11.02;9.88;;;15.70;81.00;;;;;;5005443;28;20034;-78
2021/06/08 01:06:55;;;;;;;14.65;11.63;;;15.60;82.70;;;;;;5021795;28;20120;-78
2021/06/08 01:09:20;;;;;;;15.80;11.10;;;15.60;82.50;;;;;;5035163;28;20065;-77
2021/06/08 01:11:46;;;;;;;12.60;11.35;;;15.50;83.00;;;;;;5008791;28;20036;-78
2021/06/08 01:14:11;;;;;;;11.93;9.85;;;15.50;83.70;;;;;;5020631;28;20029;-77
2021/06/08 01:16:37;;;;;;;11.07;9.95;;;15.50;83.50;;;;;;5019443;28;20040;-78
2021/06/08 01:19:02;;;;;;;11.30;10.18;;;15.50;83.10;;;;;;5018796;28;20021;-77
2021/06/08 01:21:28;;;;;;;9.85;8.00;;;15.50;84.20;;;;;;5015633;28;20406;-77
2021/06/08 01:23:54;;;;;;;11.00;9.95;;;15.50;82.30;;;;;;5037545;28;20036;-78
2021/06/08 01:26:24;;;;;;;13.75;12.05;;;15.50;82.90;;;;;;5017666;28;20582;-79
2021/06/08 01:28:50;;;;;;;13.35;12.02;;;15.30;82.90;;;;;;5024552;28;20308;-79
2021/06/08 01:31:17;;;;;;;13.82;12.27;;;15.20;84.70;;;;;;5042863;28;20045;-78
2021/06/08 01:33:43;;;;;;;13.00;11.63;;;15.20;84.90;;;;;;5025356;28;20073;-77
2021/06/08 01:36:12;;;;;;;18.70;11.20;;;15.20;84.10;;;;;;5018352;28;20468;-77
2021/06/08 01:38:38;;;;;;;13.60;11.60;;;15.10;84.90;;;;;;5031023;28;20496;-76
2021/06/08 01:41:04;;;;;;;10.77;9.75;;;15.10;84.40;;;;;;5021528;28;20448;-77
2021/06/08 01:43:30;;;;;;;12.77;11.40;;;15.10;84.90;;;;;;5019781;28;20030;-76
2021/06/08 01:45:55;;;;;;;13.23;10.65;;;15.10;84.30;;;;;;5041330;28;20108;-77
2021/06/08 01:48:21;;;;;;;16.55;11.77;;;15.00;84.30;;;;;;5039188;28;20128;-77
2021/06/08 01:50:48;;;;;;;15.10;12.55;;;14.90;84.50;;;;;;5038126;28;20036;-78
2021/06/08 01:53:20;;;;;;;12.20;10.90;;;14.90;85.90;;;;;;5033706;28;20053;-77
2021/06/08 01:55:45;;;;;;;12.55;10.98;;;14.90;86.00;;;;;;5035740;28;20033;-77
2021/06/08 01:58:14;;;;;;;15.13;11.80;;;14.80;86.20;;;;;;5016928;28;20043;-77
2021/06/08 02:01:04;;;;;;;14.18;11.30;;;14.70;86.50;;;;;;5002291;28;20037;-77
2021/06/08 02:03:34;;;;;;;12.68;11.13;;;14.70;87.30;;;;;;5010157;28;20448;-77
2021/06/08 02:06:21;;;;;;;13.05;11.70;;;14.70;87.20;;;;;;5022382;28;20029;-76
2021/06/08 02:09:00;;;;;;;13.10;11.70;;;14.70;86.10;;;;;;5034562;28;20037;-76
2021/06/08 02:12:02;;;;;;;13.27;11.85;;;14.60;86.80;;;;;;5037769;28;20052;-77
2021/06/08 02:14:36;;;;;;;14.32;11.98;;;14.50;86.80;;;;;;5015795;28;20447;-77
2021/06/08 02:17:21;;;;;;;12.98;11.45;;;14.50;87.60;;;;;;5035516;28;20496;-76
2021/06/08 02:19:48;;;;;;;15.95;12.10;;;14.40;88.30;;;;;;5032130;28;20053;-80
2021/06/08 02:22:14;;;;;;;19.17;12.63;;;14.30;88.90;;;;;;5024890;28;20017;-80
2021/06/08 02:24:41;;;;;;;16.13;13.68;;;14.30;88.40;;;;;;5002063;28;20037;-80
2021/06/08 02:27:08;;;;;;;13.48;12.13;;;14.20;88.50;;;;;;5017976;28;20054;-80
2021/06/08 02:29:34;;;;;;;16.75;12.18;;;14.20;87.80;;;;;;5023100;28;20033;-79
2021/06/08 02:32:00;;;;;;;15.27;12.80;;;14.10;87.70;;;;;;5040208;28;20406;-80
2021/06/08 02:34:26;;;;;;;16.88;12.32;;;14.00;88.50;;;;;;5039441;28;20027;-80
2021/06/08 02:36:52;;;;;;;16.85;12.25;;;14.10;88.20;;;;;;5042042;28;20471;-80
2021/06/08 02:39:17;;;;;;;17.95;12.30;;;14.10;88.80;;;;;;5010666;28;20067;-81
2021/06/08 02:41:43;;;;;;;14.52;11.77;;;14.10;88.40;;;;;;5040835;28;20037;-80
2021/06/08 02:44:09;;;;;;;14.43;12.57;;;14.10;88.50;;;;;;5011830;28;20421;-80
2021/06/08 02:46:34;;;;;;;13.73;10.20;;;14.10;88.80;;;;;;5015423;28;20037;-76
2021/06/08 02:49:00;;;;;;;8.45;7.65;;;14.10;87.50;;;;;;5007356;28;20756;-76
2021/06/08 02:51:25;;;;;;;12.45;10.85;;;14.20;87.60;;;;;;5015813;28;20052;-76
2021/06/08 02:53:55;;;;;;;8.35;7.20;;;14.30;86.80;;;;;;5025339;28;20031;-77
2021/06/08 02:56:21;;;;;;;8.80;7.85;;;14.30;86.60;;;;;;5029361;28;20116;-76
2021/06/08 02:58:46;;;;;;;9.70;8.70;;;14.30;87.10;;;;;;5037178;28;21006;-76
2021/06/08 03:01:16;;;;;;;7.30;6.65;;;14.20;86.30;;;;;;5029772;28;20378;-77
2021/06/08 03:03:42;;;;;;;13.82;10.70;;;14.20;87.50;;;;;;5028495;28;20029;-77
2021/06/08 03:06:19;;;;;;;11.82;10.52;;;14.10;86.80;;;;;;5027601;28;20040;-76
2021/06/08 03:09:07;;;;;;;12.63;11.13;;;13.90;86.70;;;;;;5026054;28;20221;-77
2021/06/08 03:11:41;;;;;;;13.80;11.32;;;13.90;87.10;;;;;;5023096;28;20068;-76
2021/06/08 03:14:11;;;;;;;13.00;11.60;;;14.00;87.50;;;;;;5023795;28;20481;-77
2021/06/08 03:16:38;;;;;;;15.02;12.88;;;14.00;87.40;;;;;;5044705;28;20029;-77
2021/06/08 03:19:05;;;;;;;18.38;13.70;;;13.90;87.40;;;;;;5041625;28;20562;-76
2021/06/08 03:21:35;;;;;;;14.90;13.40;;;13.70;87.80;;;;;;5026888;28;20103;-76
2021/06/08 03:24:02;;;;;;;14.80;12.90;;;13.70;89.00;;;;;;5003623;28;20037;-76
2021/06/08 03:26:28;;;;;;;15.27;13.65;;;13.60;90.00;;;;;;5022076;28;20507;-76
2021/06/08 03:28:54;;;;;;;16.52;12.95;;;13.50;89.70;;;;;;4991148;28;20030;-77
2021/06/08 03:31:20;;;;;;;17.17;13.15;;;13.40;90.50;;;;;;5020681;28;20034;-76
2021/06/08 03:33:45;;;;;;;17.58;14.50;;;13.40;90.40;;;;;;5022160;28;20033;-76
2021/06/08 03:36:11;;;;;;;18.25;14.88;;;13.40;90.60;;;;;;5038941;28;20079;-77
2021/06/08 03:38:37;;;;;;;16.02;13.95;;;13.50;90.30;;;;;;5019191;28;20033;-77
2021/06/08 03:41:02;;;;;;;18.08;14.95;;;13.60;89.10;;;;;;5024744;28;20036;-76
2021/06/08 03:43:28;;;;;;;21.05;14.25;;;13.60;90.10;;;;;;5022760;28;20451;-76
2021/06/08 03:45:53;;;;;;;15.07;13.50;;;13.70;90.10;;;;;;5040038;28;20548;-76
2021/06/08 03:48:20;;;;;;;13.45;9.05;;;13.90;89.60;;;;;;5023790;28;20047;-77
2021/06/08 03:50:46;;;;;;;18.17;13.88;;;13.90;88.30;;;;;;5035585;28;20069;-76
2021/06/08 03:53:11;;;;;;;15.32;12.88;;;13.80;88.70;;;;;;5042010;28;20194;-77
2021/06/08 03:55:37;;;;;;;16.90;12.80;;;13.80;89.50;;;;;;5043303;28;20037;-77
2021/06/08 03:58:10;;;;;;;17.55;13.88;;;14.00;88.10;;;;;;5038342;28;20039;-76
2021/06/08 04:00:36;;;;;;;18.00;13.50;;;13.80;90.00;;;;;;5039019;28;20075;-77
2021/06/08 04:03:03;;;;;;;15.60;13.90;;;13.90;90.40;;;;;;5004863;28;20563;-77
2021/06/08 04:05:29;;;;;;;18.50;15.10;;;14.00;89.70;;;;;;5018576;28;20029;-77
2021/06/08 04:07:54;;;;;;;23.00;15.57;;;14.00;88.70;;;;;;5005986;28;20067;-77
2021/06/08 04:10:21;;;;;;;16.70;14.25;;;14.00;90.10;;;;;;5039450;28;20056;-76
2021/06/08 04:12:46;;;;;;;17.85;14.65;;;14.00;90.20;;;;;;5041444;28;20026;-76
2021/06/08 04:15:12;;;;;;;18.05;15.10;;;14.00;90.70;;;;;;5009143;28;20036;-76
2021/06/08 04:17:38;;;;;;;15.98;14.30;;;14.00;91.10;;;;;;5034585;28;20044;-76
2021/06/08 04:20:07;;;;;;;16.98;14.38;;;14.20;90.40;;;;;;5003253;28;20532;-77
2021/06/08 04:22:34;;;;;;;16.30;14.07;;;14.30;90.40;;;;;;5040209;28;20037;-76
2021/06/08 04:24:59;;;;;;;18.23;15.57;;;14.30;90.40;;;;;;5038769;28;20032;-76
2021/06/08 04:27:26;;;;;;;22.70;15.02;;;14.30;90.40;;;;;;4996374;28;20083;-76
2021/06/08 04:29:51;;;;;;;18.30;14.38;;;14.30;90.60;;;;;;5027787;28;20040;-77
2021/06/08 04:32:18;;;;;;;21.80;14.80;;;14.40;91.30;;;;;;5006912;28;20033;-76
2021/06/08 04:34:48;;;;;;;17.42;14.43;;;14.50;91.20;;;;;;5043579;28;20065;-77
2021/06/08 04:37:13;;;;;;;19.73;14.10;;;14.50;90.40;;;;;;5025210;28;20030;-76
2021/06/08 04:39:39;;;;;;;18.52;14.27;;;14.50;90.60;;;;;;5003756;28;20095;-77
2021/06/08 04:42:06;;;;;;;16.45;14.10;;;14.50;91.40;;;;;;5021775;28;20080;-77
2021/06/08 04:44:31;;;;;;;16.63;13.77;;;14.60;90.80;;;;;;5035432;28;20489;-76
2021/06/08 04:46:57;;;;;;;20.70;15.82;;;14.60;90.60;;;;;;5043648;28;20079;-77
2021/06/08 04:49:22;;;;;;;16.92;12.70;;;14.70;90.90;;;;;;5029590;28;20034;-77
2021/06/08 04:51:48;;;;;;;18.30;14.45;;;14.80;91.10;;;;;;5019070;28;20028;-77
2021/06/08 04:54:13;;;;;;;17.65;14.13;;;15.00;91.20;;;;;;5010167;28;20029;-77
2021/06/08 04:56:39;;;;;;;12.15;9.40;;;15.10;90.80;;;;;;5033825;28;20112;-77
2021/06/08 04:59:04;;;;;;;15.65;12.93;;;15.10;90.60;;;;;;5006390;28;20033;-77
2021/06/08 05:01:33;;;;;;;13.27;11.75;;;15.20;90.00;;;;;;5021379;28;20037;-76
2021/06/08 05:04:06;;;;;;;8.80;7.90;;;15.30;90.40;;;;;;5027322;28;20037;-76
2021/06/08 05:06:34;;;;;;;9.30;8.25;;;15.40;88.70;;;;;;5022824;28;20442;-77
2021/06/08 05:09:11;;;;;;;10.60;8.50;;;15.50;88.30;;;;;;5023068;28;20049;-77
2021/06/08 05:11:55;;;;;;;15.63;12.38;;;15.60;87.90;;;;;;5018580;28;20050;-77
2021/06/08 05:14:21;;;;;;;15.35;12.60;;;15.70;88.50;;;;;;5020900;28;20436;-77
2021/06/08 05:16:47;;;;;;;7.35;6.72;;;15.70;88.40;;;;;;5021059;28;20024;-76
2021/06/08 05:19:13;;;;;;;12.52;10.63;;;15.80;88.00;;;;;;5025101;28;20044;-76
2021/06/08 05:21:40;;;;;;;14.52;9.80;;;15.90;88.60;;;;;;5034107;28;20117;-77
2021/06/08 05:24:06;;;;;;;9.15;8.10;;;16.00;87.40;;;;;;5003666;28;20467;-77
2021/06/08 05:26:31;;;;;;;10.20;9.07;;;16.10;86.80;;;;;;5019070;28;20103;-77
2021/06/08 05:28:57;;;;;;;13.73;11.95;;;16.30;87.30;;;;;;5036703;28;20397;-76
2021/06/08 05:31:22;;;;;;;14.77;12.15;;;16.30;87.90;;;;;;5002488;28;20493;-77
2021/06/08 05:33:48;;;;;;;18.38;14.90;;;16.50;87.60;;;;;;5037081;28;20456;-76
2021/06/08 05:36:14;;;;;;;14.73;11.63;;;16.60;87.90;;;;;;5036804;28;20037;-76
2021/06/08 05:38:42;;;;;;;15.93;14.20;;;16.80;87.40;;;;;;5032864;28;20032;-76
2021/06/08 05:41:23;;;;;;;13.95;12.45;;;16.90;87.80;;;;;;5001326;28;20444;-76
2021/06/08 05:43:48;;;;;;;18.80;15.70;;;17.10;87.80;;;;;;5029232;28;20383;-78
2021/06/08 05:46:14;;;;;;;15.07;13.15;;;17.20;87.90;;;;;;5003483;28;20029;-76
2021/06/08 05:48:39;;;;;;;13.95;12.00;;;17.40;88.30;;;;;;5029257;28;20073;-75
2021/06/08 05:51:06;;;;;;;12.50;11.30;;;17.50;88.60;;;;;;5041317;28;20079;-77
2021/06/08 05:53:32;;;;;;;17.45;13.35;;;17.60;88.30;;;;;;5037822;28;20095;-76
2021/06/08 05:55:58;;;;;;;15.52;12.30;;;17.80;89.00;;;;;;5038758;28;20087;-76
2021/06/08 05:58:24;;;;;;;17.83;12.48;;;18.00;89.60;;;;;;5019447;28;20048;-76
2021/06/08 06:00:51;;;;;;;8.43;7.18;;;18.10;89.00;;;;;;5017369;28;20063;-76
2021/06/08 06:03:17;;;;;;;13.80;12.35;;;18.30;85.90;;;;;;5036689;28;20393;-77
2021/06/08 06:05:43;;;;;;;18.70;15.07;;;18.40;88.10;;;;;;5013176;28;20339;-76
2021/06/08 06:08:08;;;;;;;25.15;17.00;;;18.50;88.50;;;;;;5021753;28;20031;-76
2021/06/08 06:10:34;;;;;;;17.92;14.52;;;18.70;88.50;;;;;;5035680;28;20060;-76
2021/06/08 06:13:02;;;;;;;22.83;16.52;;;18.90;88.20;;;;;;5035665;28;20485;-77
2021/06/08 06:15:37;;;;;;;20.40;16.38;;;18.90;87.80;;;;;;5013985;28;20036;-76
2021/06/08 06:18:03;;;;;;;21.30;17.38;;;19.00;88.00;;;;;;5002783;28;20063;-77
2021/06/08 06:20:28;;;;;;;21.90;18.10;;;19.00;87.70;;;;;;5038176;28;20497;-77
2021/06/08 06:22:54;;;;;;;23.50;19.98;;;19.00;87.10;;;;;;5036879;28;20072;-77
2021/06/08 06:25:19;;;;;;;18.88;15.90;;;19.00;87.50;;;;;;5022224;28;20033;-77
2021/06/08 06:27:45;;;;;;;24.33;19.02;;;19.00;87.00;;;;;;5015802;28;20056;-77
2021/06/08 06:30:13;;;;;;;24.13;19.75;;;19.20;87.80;;;;;;5023106;28;20025;-78
2021/06/08 06:32:38;;;;;;;20.15;17.00;;;19.20;88.20;;;;;;5019037;28;20064;-77
2021/06/08 06:35:05;;;;;;;22.15;19.25;;;19.30;88.30;;;;;;5038011;28;20049;-77
2021/06/08 06:37:32;;;;;;;23.45;18.08;;;19.50;88.50;;;;;;5022605;28;20834;-77
2021/06/08 06:39:57;;;;;;;22.83;18.83;;;19.80;89.30;;;;;;5016882;28;20021;-76
2021/06/08 06:42:25;;;;;;;22.95;18.40;;;20.10;88.70;;;;;;5020260;28;20119;-77
2021/06/08 06:44:51;;;;;;;25.75;19.77;;;20.40;88.50;;;;;;5040661;28;20102;-77
2021/06/08 06:47:17;;;;;;;18.73;15.75;;;20.60;88.00;;;;;;5019296;28;20030;-77
2021/06/08 06:49:42;;;;;;;27.35;23.00;;;20.80;87.80;;;;;;5015355;28;20111;-78
2021/06/08 06:52:08;;;;;;;24.92;20.75;;;20.90;88.10;;;;;;5014073;28;20096;-78
2021/06/08 06:54:34;;;;;;;21.10;18.95;;;21.00;88.00;;;;;;4984997;28;20398;-77
2021/06/08 06:57:00;;;;;;;25.20;17.30;;;21.20;86.80;;;;;;5013492;28;20461;-78
2021/06/08 06:59:26;;;;;;;25.40;19.45;;;21.30;86.70;;;;;;5001162;28;20038;-77
2021/06/08 07:01:51;;;;;;;19.83;16.65;;;21.50;87.20;;;;;;5015502;28;20510;-78
2021/06/08 07:04:17;;;;;;;21.15;17.73;;;21.50;86.40;;;;;;5023949;28;20033;-77
2021/06/08 07:06:42;;;;;;;24.98;18.83;;;21.60;86.60;;;;;;5017830;28;20045;-78
2021/06/08 07:09:08;;;;;;;22.50;19.33;;;21.70;86.20;;;;;;5024990;28;20033;-77
2021/06/08 07:11:34;;;;;;;23.52;17.88;;;21.90;86.70;;;;;;5018496;28;20064;-77
2021/06/08 07:13:59;;;;;;;23.70;15.95;;;22.10;86.30;;;;;;4995153;28;20026;-77
2021/06/08 07:16:25;;;;;;;16.30;14.35;;;22.30;85.80;;;;;;5003094;28;20045;-77
2021/06/08 07:18:51;;;;;;;21.75;19.55;;;22.30;85.60;;;;;;5016988;28;20047;-77
2021/06/08 07:21:18;;;;;;;23.48;17.67;;;22.50;85.70;;;;;;5021870;28;20033;-77
2021/06/08 07:23:45;;;;;;;22.83;18.85;;;22.70;85.30;;;;;;5023011;28;20107;-77
2021/06/08 07:26:12;;;;;;;24.02;19.55;;;22.90;85.10;;;;;;5026248;28;20035;-77
2021/06/08 07:28:37;;;;;;;22.13;18.55;;;23.10;84.00;;;;;;5027084;28;20066;-78
2021/06/08 07:31:03;;;;;;;16.80;14.90;;;23.20;84.00;;;;;;5041261;28;20516;-77
2021/06/08 07:33:48;;;;;;;25.20;17.48;;;23.20;83.30;;;;;;5007563;28;20419;-77
2021/06/08 07:36:28;;;;;;;18.10;15.05;;;23.30;83.60;;;;;;5038238;28;20044;-78
2021/06/08 07:39:00;;;;;;;25.33;21.65;;;23.50;82.70;;;;;;5010023;28;20044;-78
2021/06/08 07:41:43;;;;;;;26.02;17.52;;;23.80;83.60;;;;;;5024007;28;20152;-77
2021/06/08 07:44:15;;;;;;;19.83;16.17;;;24.20;82.60;;;;;;5026343;28;20037;-76
2021/06/08 07:46:41;;;;;;;23.83;18.77;;;24.50;82.50;;;;;;5038787;28;20036;-77
2021/06/08 07:49:06;;;;;;;17.25;13.88;;;24.80;82.30;;;;;;5023098;28;20401;-77
2021/06/08 07:51:32;;;;;;;19.92;17.70;;;25.20;81.80;;;;;;5039183;28;20032;-77
2021/06/08 07:53:58;;;;;;;22.50;16.08;;;25.60;78.90;;;;;;5012052;28;20389;-77
2021/06/08 07:56:23;;;;;;;13.98;12.50;;;25.90;76.80;;;;;;5008690;28;20029;-78
2021/06/08 07:58:49;;;;;;;20.10;15.45;;;25.90;76.80;;;;;;5008511;28;20433;-78
2021/06/08 08:01:15;;;;;;;15.63;12.88;;;26.00;78.00;;;;;;5029055;28;20049;-79
2021/06/08 08:03:41;;;;;;;21.77;17.02;;;26.00;76.40;;;;;;5042139;28;20396;-80
2021/06/08 08:06:08;;;;;;;23.45;15.80;;;26.10;75.70;;;;;;5013180;28;20025;-78
2021/06/08 08:08:34;;;;;;;17.75;15.35;;;26.30;74.50;;;;;;5042210;28;20025;-78
2021/06/08 08:11:00;;;;;;;17.67;15.18;;;26.50;74.20;;;;;;5042958;28;20048;-79
2021/06/08 08:13:28;;;;;;;15.68;13.70;;;26.70;74.70;;;;;;5028424;28;20041;-78
2021/06/08 08:15:54;;;;;;;17.08;14.20;;;26.90;72.40;;;;;;5023338;28;20021;-78
2021/06/08 08:18:20;;;;;;;17.45;15.00;;;27.30;72.00;;;;;;5025322;28;20479;-78
2021/06/08 08:20:52;;;;;;;18.73;15.43;;;27.50;71.40;;;;;;5041458;28;20029;-79
2021/06/08 08:23:17;;;;;;;19.27;15.10;;;27.80;69.20;;;;;;5028192;28;20396;-78
2021/06/08 08:25:43;;;;;;;18.40;15.02;;;28.10;68.90;;;;;;5021521;28;20038;-79
2021/06/08 08:28:09;;;;;;;18.42;12.70;;;28.30;68.90;;;;;;5023073;28;20037;-77
2021/06/08 08:30:35;;;;;;;15.07;12.68;;;28.80;65.30;;;;;;5027977;28;20416;-77
2021/06/08 08:33:01;;;;;;;9.43;6.38;;;29.00;64.70;;;;;;5042037;28;20044;-77
2021/06/08 08:35:26;;;;;;;8.27;6.88;;;28.90;65.80;;;;;;5032705;28;20026;-77
2021/06/08 08:37:53;;;;;;;12.50;10.35;;;28.60;66.20;;;;;;5042737;28;20033;-77
2021/06/08 08:40:18;;;;;;;13.43;9.48;;;28.90;65.70;;;;;;5022292;28;20163;-77
2021/06/08 08:42:45;;;;;;;6.72;6.07;;;29.30;63.60;;;;;;5040664;28;20039;-76
2021/06/08 08:45:14;;;;;;;11.30;9.90;;;29.60;64.30;;;;;;5043545;28;20474;-77
2021/06/08 08:47:40;;;;;;;8.77;6.82;;;30.00;60.20;;;;;;5041775;28;20434;-76
2021/06/08 08:50:06;;;;;;;9.07;8.15;;;30.20;60.40;;;;;;5036889;28;20546;-76
2021/06/08 08:52:32;;;;;;;11.02;8.18;;;30.50;61.20;;;;;;5037029;28;20116;-76
2021/06/08 08:54:59;;;;;;;9.18;6.93;;;30.60;61.50;;;;;;5018626;28;20124;-76
2021/06/08 08:57:26;;;;;;;13.68;9.02;;;31.00;61.40;;;;;;5022108;28;20121;-76
2021/06/08 08:59:52;;;;;;;12.02;10.30;;;31.50;58.00;;;;;;5039629;28;20485;-77
2021/06/08 09:02:18;;;;;;;12.18;10.32;;;31.70;56.20;;;;;;5023662;28;20034;-77
2021/06/08 09:04:43;;;;;;;14.38;10.65;;;31.70;56.80;;;;;;5023482;28;20408;-75
2021/06/08 09:07:10;;;;;;;13.20;10.85;;;31.80;57.00;;;;;;5028356;28;20044;-76
2021/06/08 09:09:35;;;;;;;12.52;11.18;;;31.60;55.10;;;;;;5043932;28;20100;-76
2021/06/08 09:12:04;;;;;;;13.73;10.05;;;31.40;55.80;;;;;;5038664;28;20031;-76
2021/06/08 09:14:35;;;;;;;14.80;11.93;;;31.20;55.10;;;;;;5028043;28;20428;-76
2021/06/08 09:17:01;;;;;;;11.32;10.13;;;31.00;54.70;;;;;;5036900;28;20029;-77
2021/06/08 09:19:28;;;;;;;11.07;9.57;;;30.90;54.40;;;;;;5036881;28;20106;-78
2021/06/08 09:21:54;;;;;;;8.77;7.57;;;31.10;52.10;;;;;;5025503;28;20229;-76
2021/06/08 09:24:24;;;;;;;7.38;6.68;;;31.40;51.10;;;;;;5013079;28;20390;-76
2021/06/08 09:26:51;;;;;;;6.05;4.80;;;31.70;50.50;;;;;;5028193;28;20025;-76
2021/06/08 09:29:29;;;;;;;5.55;5.00;;;31.80;49.70;;;;;;5021360;28;20831;-76
2021/06/08 09:32:30;;;;;;;11.20;10.13;;;31.90;50.70;;;;;;5019461;28;20030;-77
2021/06/08 09:35:00;;;;;;;8.52;7.72;;;32.10;49.50;;;;;;5013716;28;20038;-76
2021/06/08 09:37:36;;;;;;;9.57;8.68;;;31.80;50.80;;;;;;5001543;28;20040;-76
2021/06/08 09:40:17;;;;;;;10.95;9.85;;;31.80;50.20;;;;;;5041762;28;20033;-77
2021/06/08 09:42:43;;;;;;;9.35;7.78;;;31.60;49.90;;;;;;5028087;28;20033;-78
2021/06/08 09:45:14;;;;;;;11.25;9.70;;;31.60;51.20;;;;;;5037467;28;20032;-77
2021/06/08 09:47:41;;;;;;;7.65;6.90;;;31.60;50.70;;;;;;5014445;28;20485;-78
2021/06/08 09:50:42;;;;;;;9.38;8.45;;;31.40;51.30;;;;;;5039137;28;20032;-77
2021/06/08 09:53:26;;;;;;;13.23;9.38;;;31.40;51.70;;;;;;5040227;28;20028;-77
2021/06/08 09:55:53;;;;;;;11.00;9.55;;;31.30;51.80;;;;;;5038189;28;20361;-77
2021/06/08 09:58:19;;;;;;;9.10;7.30;;;31.30;51.80;;;;;;5039662;28;20512;-77
2021/06/08 10:01:11;;;;;;;11.63;8.50;;;31.40;51.60;;;;;;5039864;28;20081;-77
2021/06/08 10:03:51;;;;;;;12.13;10.90;;;31.50;51.60;;;;;;5016098;28;20124;-76
2021/06/08 10:06:20;;;;;;;9.65;7.72;;;31.60;48.70;;;;;;5039946;28;20036;-76
2021/06/08 10:08:56;;;;;;;10.55;9.45;;;31.50;50.30;;;;;;5034590;28;20393;-77
2021/06/08 10:11:35;;;;;;;14.63;10.82;;;31.60;49.60;;;;;;5022358;28;20037;-77
2021/06/08 10:14:17;;;;;;;13.10;11.10;;;31.60;48.40;;;;;;5023355;28;20499;-77
2021/06/08 10:16:42;;;;;;;8.85;7.88;;;31.50;49.30;;;;;;5013888;28;20034;-78
2021/06/08 10:19:10;;;;;;;8.77;7.88;;;31.30;48.60;;;;;;5029418;28;20128;-78
2021/06/08 10:21:48;;;;;;;6.93;6.32;;;31.10;49.00;;;;;;5027031;28;20032;-78
2021/06/08 10:24:24;;;;;;;6.53;5.60;;;31.10;49.20;;;;;;5028757;28;20029;-77
2021/06/08 10:26:51;;;;;;;13.18;8.57;;;31.10;51.30;;;;;;5026656;28;20033;-78
2021/06/08 10:29:19;;;;;;;9.32;7.93;;;31.00;50.70;;;;;;5032503;28;20033;-79
2021/06/08 10:31:45;;;;;;;7.90;6.93;;;31.60;47.30;;;;;;5028500;28;20037;-78
2021/06/08 10:34:11;;;;;;;7.55;6.47;;;31.90;47.80;;;;;;5025855;28;20045;-78
2021/06/08 10:36:41;;;;;;;4.28;3.88;;;32.10;46.60;;;;;;5004199;28;20029;-77
2021/06/08 10:39:08;;;;;;;4.65;3.58;;;32.20;47.90;;;;;;5034485;28;20151;-78
2021/06/08 10:41:35;;;;;;;6.03;5.43;;;32.60;47.70;;;;;;5034319;28;20037;-77
2021/06/08 10:44:01;;;;;;;6.07;4.53;;;32.70;48.00;;;;;;5029885;28;20034;-77
2021/06/08 10:46:33;;;;;;;10.50;7.30;;;33.00;48.00;;;;;;5033923;28;20062;-78
2021/06/08 10:48:59;;;;;;;8.85;7.75;;;33.60;47.00;;;;;;5003958;28;20026;-78
2021/06/08 10:51:26;;;;;;;6.15;5.07;;;34.30;45.80;;;;;;5004202;28;20232;-78
2021/06/08 10:53:56;;;;;;;5.88;5.00;;;34.40;45.20;;;;;;5044457;28;20021;-78
2021/06/08 10:56:23;;;;;;;7.40;5.88;;;34.50;45.30;;;;;;5044837;28;20154;-77
2021/06/08 10:58:51;;;;;;;8.00;5.90;;;34.50;43.80;;;;;;5042483;28;20496;-77
2021/06/08 11:01:38;;;;;;;7.70;6.85;;;34.60;44.20;;;;;;5027894;28;20493;-78
2021/06/08 11:04:09;;;;;;;7.85;5.90;;;34.40;41.80;;;;;;5040531;28;20029;-78
2021/06/08 11:06:44;;;;;;;6.10;5.25;;;34.20;43.20;;;;;;5044028;28;20475;-77
2021/06/08 11:09:14;;;;;;;10.13;6.78;;;34.10;43.50;;;;;;5041847;28;20032;-77
2021/06/08 11:11:42;;;;;;;6.35;5.63;;;34.10;42.40;;;;;;5041059;28;20033;-77
2021/06/08 11:14:28;;;;;;;6.95;4.75;;;34.10;43.80;;;;;;5039521;28;20040;-79
2021/06/08 11:16:58;;;;;;;7.10;5.45;;;34.40;44.20;;;;;;5037198;28;20056;-79
2021/06/08 11:19:45;;;;;;;4.68;4.15;;;34.60;42.70;;;;;;5040932;28;20043;-78
2021/06/08 11:22:11;;;;;;;8.32;5.68;;;34.70;43.20;;;;;;5045608;28;20029;-79
2021/06/08 11:24:38;;;;;;;5.82;5.32;;;35.20;40.40;;;;;;5043498;28;20037;-78
2021/06/08 11:27:04;;;;;;;6.63;5.55;;;35.10;40.50;;;;;;5043520;28;20029;-78
2021/06/08 11:29:58;;;;;;;4.45;4.05;;;34.80;39.30;;;;;;5024480;28;20878;-77
2021/06/08 11:32:30;;;;;;;4.80;4.40;;;34.60;40.30;;;;;;5043265;28;20059;-77
2021/06/08 11:35:23;;;;;;;3.80;3.47;;;34.50;41.70;;;;;;5046577;28;20387;-78
2021/06/08 11:37:56;;;;;;;5.22;4.38;;;34.60;42.60;;;;;;5042677;28;20391;-78
2021/06/08 11:40:38;;;;;;;7.55;6.80;;;34.90;39.30;;;;;;5042098;28;20033;-78
2021/06/08 11:43:03;;;;;;;7.93;4.75;;;35.40;39.00;;;;;;5041928;28;20514;-78
2021/06/08 11:45:31;;;;;;;6.85;5.35;;;35.50;39.20;;;;;;5044411;28;20029;-77
2021/06/08 11:47:56;;;;;;;6.40;5.80;;;35.70;38.70;;;;;;5044643;28;20075;-78
2021/06/08 11:50:42;;;;;;;6.47;5.07;;;35.70;39.70;;;;;;5041725;28;20053;-78
2021/06/08 11:53:08;;;;;;;;;;;35.70;40.40;;;;;;5026416;28;20029;-77
2021/06/08 11:55:34;;;;;;;7.97;7.18;;;35.70;40.60;;;;;;5037817;28;19916;-78
2021/06/08 11:58:00;;;;;;;8.63;7.93;;;36.00;38.50;;;;;;5040826;28;20524;-78
2021/06/08 12:00:51;;;;;;;7.43;6.68;;;36.10;37.90;;;;;;5037841;28;20033;-78
2021/06/08 12:03:29;;;;;;;8.90;8.05;;;36.10;38.60;;;;;;5043715;28;20106;-78
2021/06/08 12:05:55;;;;;;;7.60;6.80;;;36.40;38.50;;;;;;5041912;28;20111;-78
2021/06/08 12:08:22;;;;;;;5.88;5.38;;;36.30;38.80;;;;;;5039008;28;20045;-78
2021/06/08 12:10:48;;;;;;;6.85;6.25;;;36.00;39.30;;;;;;5041300;28;20103;-79
2021/06/08 12:13:14;;;;;;;5.30;4.80;;;35.90;38.80;;;;;;5040021;28;20059;-79
2021/06/08 12:15:44;;;;;;;6.82;6.13;;;35.70;39.20;;;;;;5042664;28;20061;-79
2021/06/08 12:18:16;;;;;;;6.55;5.78;;;35.50;38.20;;;;;;5028570;28;20040;-79
2021/06/08 12:20:43;;;;;;;6.60;6.10;;;35.30;39.70;;;;;;5022405;28;20037;-79
2021/06/08 12:23:09;;;;;;;5.53;4.75;;;35.50;39.20;;;;;;5026958;28;20044;-78
2021/06/08 12:25:35;;;;;;;9.43;8.35;;;35.50;39.30;;;;;;5044220;28;20033;-78
2021/06/08 12:28:00;;;;;;;7.95;7.15;;;35.90;38.30;;;;;;5022027;28;20510;-78
2021/06/08 12:30:28;;;;;;;7.47;6.82;;;36.10;36.90;;;;;;5011659;28;20025;-78
2021/06/08 12:32:58;;;;;;;6.32;5.78;;;36.20;38.40;;;;;;5021712;28;20041;-79
2021/06/08 12:35:35;;;;;;;8.30;7.50;;;36.20;38.60;;;;;;5038582;28;20186;-78
2021/06/08 12:38:18;;;;;;;6.38;5.88;;;36.10;35.60;;;;;;5026071;28;20060;-78
2021/06/08 12:40:55;;;;;;;6.30;5.70;;;36.10;37.60;;;;;;5023202;28;20038;-79
2021/06/08 12:43:20;;;;;;;8.05;7.28;;;36.20;38.40;;;;;;5026267;28;20488;-78